Time,TemperatureF,DewpointF,PressureIn,WindDirection,WindDirectionDegrees,WindSpeedMPH,WindSpeedGustMPH,Humidity,HourlyPrecipIn,Conditions,Clouds,dailyrainin,SoftwareType,DateUTC
2013-04-20 00:08:00,40.1,34.1,29.75,West,270,6.3,-999.0,79,-99.99,,,0.00,Acu-Link.com,2013-04-20 04:08:00,
2013-04-20 00:23:00,39.9,33.6,29.75,WSW,247,10.9,-999.0,78,-99.99,,,0.00,Acu-Link.com,2013-04-20 04:23:00,
2013-04-20 00:38:00,39.7,33.4,29.76,WNW,292,8.9,-999.0,78,-99.99,,,0.00,Acu-Link.com,2013-04-20 04:38:00,
2013-04-20 00:54:00,39.6,33.9,29.76,West,270,4.7,-999.0,80,-99.99,,,0.00,Acu-Link.com,2013-04-20 04:54:00,
2013-04-20 01:09:00,39.4,34.1,29.77,West,270,8.3,-999.0,81,-99.99,,,0.00,Acu-Link.com,2013-04-20 05:09:00,
2013-04-20 01:24:00,38.3,34.2,29.78,West,270,5.8,-999.0,85,-99.99,,,0.00,Acu-Link.com,2013-04-20 05:24:00,
2013-04-20 01:39:00,37.8,34.3,29.78,SSE,157,5.3,-999.0,87,-99.99,,,0.00,Acu-Link.com,2013-04-20 05:39:00,
2013-04-20 01:54:00,37.9,32.9,29.78,WSW,247,11.9,-999.0,82,-99.99,,,0.00,Acu-Link.com,2013-04-20 05:54:00,
2013-04-20 02:10:00,37.9,32.3,29.79,WSW,247,7.8,-999.0,80,-99.99,,,0.00,Acu-Link.com,2013-04-20 06:10:00,
2013-04-20 02:25:00,37.9,31.7,29.79,WSW,247,7.8,-999.0,78,-99.99,,,0.00,Acu-Link.com,2013-04-20 06:25:00,
2013-04-20 02:40:00,36.1,33.7,29.80,SSW,202,4.7,-999.0,91,-99.99,,,0.00,Acu-Link.com,2013-04-20 06:40:00,
2013-04-20 02:55:00,34.7,33.7,29.81,NNW,337,11.9,-999.0,96,-99.99,,,0.00,Acu-Link.com,2013-04-20 06:55:00,
2013-04-20 03:11:00,34.2,31.9,29.82,West,270,11.9,-999.0,91,-99.99,,,0.01,Acu-Link.com,2013-04-20 07:11:00,
2013-04-20 03:26:00,34.3,30.3,29.82,West,270,13.0,-999.0,85,-99.99,,,0.01,Acu-Link.com,2013-04-20 07:26:00,
2013-04-20 03:41:00,34.2,29.3,29.82,WSW,247,8.9,-999.0,82,-99.99,,,0.01,Acu-Link.com,2013-04-20 07:41:00,
2013-04-20 03:56:00,34.2,29.0,29.82,West,270,9.4,-999.0,81,-99.99,,,0.01,Acu-Link.com,2013-04-20 07:56:00,
2013-04-20 04:11:00,34.2,28.4,29.82,South,180,19.1,-999.0,79,-99.99,,,0.01,Acu-Link.com,2013-04-20 08:11:00,
2013-04-20 04:27:00,33.8,27.7,29.83,West,270,12.5,-999.0,78,-99.99,,,0.01,Acu-Link.com,2013-04-20 08:27:00,
2013-04-20 04:42:00,33.6,27.8,29.84,WNW,292,7.8,-999.0,79,-99.99,,,0.01,Acu-Link.com,2013-04-20 08:42:00,
2013-04-20 04:57:00,33.3,27.5,29.84,WNW,292,7.3,-999.0,79,-99.99,,,0.01,Acu-Link.com,2013-04-20 08:57:00,
2013-04-20 05:12:00,33.1,27.9,29.84,SW,225,8.3,-999.0,81,-99.99,,,0.01,Acu-Link.com,2013-04-20 09:12:00,
2013-04-20 05:27:00,32.5,27.0,29.84,WNW,292,8.9,-999.0,80,-99.99,,,0.01,Acu-Link.com,2013-04-20 09:27:00,
2013-04-20 05:43:00,32.5,26.7,29.86,WSW,247,13.5,-999.0,79,-99.99,,,0.01,Acu-Link.com,2013-04-20 09:43:00,
2013-04-20 05:58:00,32.5,26.7,29.86,West,270,4.2,-999.0,79,-99.99,,,0.01,Acu-Link.com,2013-04-20 09:58:00,
2013-04-20 06:13:00,32.5,26.4,29.86,West,270,7.8,-999.0,78,-99.99,,,0.01,Acu-Link.com,2013-04-20 10:13:00,
2013-04-20 06:29:00,32.5,26.7,29.86,WSW,247,8.3,-999.0,79,-99.99,,,0.01,Acu-Link.com,2013-04-20 10:29:00,
2013-04-20 06:44:00,32.2,27.0,29.86,WNW,292,8.3,-999.0,81,-99.99,,,0.01,Acu-Link.com,2013-04-20 10:44:00,
2013-04-20 07:02:00,32.4,26.9,29.87,South,180,17.6,-999.0,80,-99.99,,,0.01,Acu-Link.com,2013-04-20 11:02:00,
2013-04-20 07:17:00,32.5,27.0,29.87,West,270,12.5,-999.0,80,-99.99,,,0.01,Acu-Link.com,2013-04-20 11:17:00,
2013-04-20 07:33:00,32.9,27.7,29.89,SSW,202,6.8,-999.0,81,-99.99,,,0.01,Acu-Link.com,2013-04-20 11:33:00,
2013-04-20 07:48:00,32.9,27.7,29.89,West,270,10.4,-999.0,81,-99.99,,,0.01,Acu-Link.com,2013-04-20 11:48:00,
2013-04-20 08:03:00,33.4,27.9,29.89,West,270,7.3,-999.0,80,-99.99,,,0.01,Acu-Link.com,2013-04-20 12:03:00,
2013-04-20 08:19:00,33.8,28.0,29.90,West,270,6.8,-999.0,79,-99.99,,,0.01,Acu-Link.com,2013-04-20 12:19:00,
2013-04-20 08:35:00,34.0,27.9,29.90,West,270,8.9,-999.0,78,-99.99,,,0.01,Acu-Link.com,2013-04-20 12:35:00,
2013-04-20 08:50:00,34.2,27.8,29.91,WSW,247,11.4,-999.0,77,-99.99,,,0.01,Acu-Link.com,2013-04-20 12:50:00,
2013-04-20 09:05:00,35.2,28.1,29.92,West,270,10.9,-999.0,75,-99.99,,,0.01,Acu-Link.com,2013-04-20 13:05:00,
2013-04-20 09:21:00,35.1,28.3,29.92,SSW,202,10.9,-999.0,76,-99.99,,,0.01,Acu-Link.com,2013-04-20 13:21:00,
2013-04-20 09:36:00,35.2,27.1,29.94,SSW,202,11.4,-999.0,72,-99.99,,,0.01,Acu-Link.com,2013-04-20 13:36:00,
2013-04-20 09:51:00,34.9,28.4,29.94,SW,225,13.5,-999.0,77,-99.99,,,0.01,Acu-Link.com,2013-04-20 13:51:00,
2013-04-20 10:07:00,35.1,29.3,29.96,West,270,10.4,-999.0,79,-99.99,,,0.01,Acu-Link.com,2013-04-20 14:07:00,
2013-04-20 10:22:00,35.4,28.3,29.96,South,180,10.4,-999.0,75,-99.99,,,0.01,Acu-Link.com,2013-04-20 14:22:00,
2013-04-20 10:37:00,36.5,27.7,29.97,West,270,13.0,-999.0,70,-99.99,,,0.01,Acu-Link.com,2013-04-20 14:37:00,
2013-04-20 10:52:00,37.0,28.1,29.98,West,270,9.9,-999.0,70,-99.99,,,0.01,Acu-Link.com,2013-04-20 14:52:00,
2013-04-20 11:08:00,38.3,29.0,29.98,South,180,7.3,-999.0,69,-99.99,,,0.01,Acu-Link.com,2013-04-20 15:08:00,
2013-04-20 11:23:00,37.9,29.4,29.99,West,270,10.9,-999.0,71,-99.99,,,0.01,Acu-Link.com,2013-04-20 15:23:00,
2013-04-20 11:38:00,39.0,31.1,29.99,NW,315,9.9,-999.0,73,-99.99,,,0.01,Acu-Link.com,2013-04-20 15:38:00,
2013-04-20 11:53:00,38.7,29.4,30.00,West,270,11.4,-999.0,69,-99.99,,,0.01,Acu-Link.com,2013-04-20 15:53:00,
2013-04-20 12:09:00,38.3,30.1,30.01,WSW,247,11.4,-999.0,72,-99.99,,,0.01,Acu-Link.com,2013-04-20 16:09:00,
2013-04-20 12:24:00,39.6,28.4,30.00,WSW,247,11.4,-999.0,64,-99.99,,,0.01,Acu-Link.com,2013-04-20 16:24:00,
2013-04-20 12:39:00,41.7,29.7,30.01,WSW,247,8.9,-999.0,62,-99.99,,,0.01,Acu-Link.com,2013-04-20 16:39:00,
2013-04-20 12:54:00,40.1,28.5,30.00,West,270,9.4,-999.0,63,-99.99,,,0.01,Acu-Link.com,2013-04-20 16:54:00,
2013-04-20 13:09:00,41.2,27.1,30.01,West,270,12.5,-999.0,57,-99.99,,,0.01,Acu-Link.com,2013-04-20 17:09:00,
2013-04-20 13:25:00,41.2,27.1,30.01,WNW,292,7.8,-999.0,57,-99.99,,,0.01,Acu-Link.com,2013-04-20 17:25:00,
2013-04-20 13:40:00,40.8,26.8,30.01,WNW,292,12.5,-999.0,57,-99.99,,,0.01,Acu-Link.com,2013-04-20 17:40:00,
2013-04-20 13:55:00,43.2,26.8,30.01,West,270,13.0,-999.0,52,-99.99,,,0.01,Acu-Link.com,2013-04-20 17:55:00,
2013-04-20 14:11:00,42.8,26.9,30.02,WSW,247,13.0,-999.0,53,-99.99,,,0.01,Acu-Link.com,2013-04-20 18:11:00,
2013-04-20 14:26:00,42.3,26.4,30.02,West,270,8.9,-999.0,53,-99.99,,,0.01,Acu-Link.com,2013-04-20 18:26:00,
2013-04-20 14:41:00,45.3,26.8,30.02,WNW,292,9.4,-999.0,48,-99.99,,,0.01,Acu-Link.com,2013-04-20 18:41:00,
2013-04-20 14:56:00,46.2,27.1,30.03,WSW,247,8.9,-999.0,47,-99.99,,,0.01,Acu-Link.com,2013-04-20 18:56:00,
2013-04-20 15:11:00,44.1,26.2,30.04,West,270,8.9,-999.0,49,-99.99,,,0.01,Acu-Link.com,2013-04-20 19:11:00,
2013-04-20 15:27:00,43.9,26.0,30.04,NW,315,11.4,-999.0,49,-99.99,,,0.01,Acu-Link.com,2013-04-20 19:27:00,
2013-04-20 15:42:00,46.0,24.2,30.03,WSW,247,15.5,-999.0,42,-99.99,,,0.01,Acu-Link.com,2013-04-20 19:42:00,
2013-04-20 15:57:00,43.2,24.9,30.04,West,270,9.9,-999.0,48,-99.99,,,0.01,Acu-Link.com,2013-04-20 19:57:00,
2013-04-20 16:12:00,47.3,25.4,30.05,West,270,10.9,-999.0,42,-99.99,,,0.01,Acu-Link.com,2013-04-20 20:12:00,
2013-04-20 16:28:00,46.0,25.3,30.05,West,270,8.3,-999.0,44,-99.99,,,0.01,Acu-Link.com,2013-04-20 20:28:00,
2013-04-20 16:43:00,45.1,24.5,30.06,West,270,10.9,-999.0,44,-99.99,,,0.01,Acu-Link.com,2013-04-20 20:43:00,
2013-04-20 16:58:00,44.2,23.1,30.07,West,270,8.9,-999.0,43,-99.99,,,0.01,Acu-Link.com,2013-04-20 20:58:00,
2013-04-20 17:13:00,45.1,23.4,30.07,West,270,5.8,-999.0,42,-99.99,,,0.01,Acu-Link.com,2013-04-20 21:13:00,
2013-04-20 17:28:00,45.1,24.5,30.09,West,270,13.0,-999.0,44,-99.99,,,0.01,Acu-Link.com,2013-04-20 21:28:00,
2013-04-20 17:44:00,44.6,24.1,30.10,NW,315,10.4,-999.0,44,-99.99,,,0.01,Acu-Link.com,2013-04-20 21:44:00,
2013-04-20 17:59:00,42.6,23.3,30.11,NNW,337,7.8,-999.0,46,-99.99,,,0.01,Acu-Link.com,2013-04-20 21:59:00,
2013-04-20 18:14:00,42.3,24.0,30.12,WNW,292,9.4,-999.0,48,-99.99,,,0.01,Acu-Link.com,2013-04-20 22:14:00,
2013-04-20 18:29:00,43.7,25.3,30.12,WSW,247,6.8,-999.0,48,-99.99,,,0.01,Acu-Link.com,2013-04-20 22:29:00,
2013-04-20 18:44:00,42.3,24.5,30.13,West,270,5.3,-999.0,49,-99.99,,,0.01,Acu-Link.com,2013-04-20 22:44:00,
2013-04-20 19:00:00,41.7,24.0,30.14,West,270,9.9,-999.0,49,-99.99,,,0.01,Acu-Link.com,2013-04-20 23:00:00,
2013-04-20 19:15:00,41.7,24.0,30.14,WNW,292,7.3,-999.0,49,-99.99,,,0.01,Acu-Link.com,2013-04-20 23:15:00,
2013-04-20 19:30:00,40.5,23.8,30.14,WNW,292,7.3,-999.0,51,-99.99,,,0.01,Acu-Link.com,2013-04-20 23:30:00,
2013-04-20 19:45:00,39.6,23.9,30.16,West,270,6.3,-999.0,53,-99.99,,,0.01,Acu-Link.com,2013-04-20 23:45:00,
2013-04-20 20:00:00,38.5,24.2,30.16,NNW,337,4.7,-999.0,56,-99.99,,,0.01,Acu-Link.com,2013-04-21 00:00:00,
2013-04-20 20:16:00,37.2,23.8,30.18,WSW,247,4.2,-999.0,58,-99.99,,,0.01,Acu-Link.com,2013-04-21 00:16:00,
2013-04-20 20:31:00,36.9,23.5,30.19,WSW,247,6.8,-999.0,58,-99.99,,,0.01,Acu-Link.com,2013-04-21 00:31:00,
2013-04-20 20:46:00,36.3,24.2,30.20,West,270,5.8,-999.0,61,-99.99,,,0.01,Acu-Link.com,2013-04-21 00:46:00,
2013-04-20 21:02:00,35.6,23.5,30.21,WNW,292,3.2,-999.0,61,-99.99,,,0.01,Acu-Link.com,2013-04-21 01:02:00,
2013-04-20 21:17:00,34.7,24.2,30.22,NW,315,4.2,-999.0,65,-99.99,,,0.01,Acu-Link.com,2013-04-21 01:17:00,
2013-04-20 21:32:00,34.5,23.6,30.22,WNW,292,5.8,-999.0,64,-99.99,,,0.01,Acu-Link.com,2013-04-21 01:32:00,
2013-04-20 21:47:00,34.0,23.5,30.23,WNW,292,4.7,-999.0,65,-99.99,,,0.01,Acu-Link.com,2013-04-21 01:47:00,
2013-04-20 22:02:00,33.6,23.1,30.24,West,270,2.7,-999.0,65,-99.99,,,0.01,Acu-Link.com,2013-04-21 02:02:00,
2013-04-20 22:18:00,33.1,23.4,30.24,West,270,2.2,-999.0,67,-99.99,,,0.01,Acu-Link.com,2013-04-21 02:18:00,
2013-04-20 22:33:00,32.7,23.0,30.25,West,270,2.2,-999.0,67,-99.99,,,0.01,Acu-Link.com,2013-04-21 02:33:00,
2013-04-20 22:48:00,32.2,22.5,30.26,WNW,292,2.7,-999.0,67,-99.99,,,0.01,Acu-Link.com,2013-04-21 02:48:00,
2013-04-20 23:03:00,31.6,22.6,30.26,North,0,0.0,-999.0,69,-99.99,,,0.01,Acu-Link.com,2013-04-21 03:03:00,
2013-04-20 23:19:00,31.6,22.6,30.26,West,270,1.1,-999.0,69,-99.99,,,0.01,Acu-Link.com,2013-04-21 03:19:00,
2013-04-20 23:34:00,30.9,22.6,30.27,West,270,0.0,-999.0,71,-99.99,,,0.01,Acu-Link.com,2013-04-21 03:34:00,
2013-04-20 23:49:00,30.4,22.5,30.28,WSW,247,0.0,-999.0,72,-99.99,,,0.01,Acu-Link.com,2013-04-21 03:49:00,